Time;durP1;ratioP1;P1;durP2;ratioP2;P2;SDS_P1;SDS_P2;PMS_P1;PMS_P2;Temp;Humidity;BMP_temperature;BMP_pressure;BME280_temperature;BME280_humidity;BME280_pressure;Samples;Min_cycle;Max_cycle;Signal;HPM_P1;HPM_P2
2022/01/30 00:00:14;;;;;;;2.42;1.77;;;4.20;84.30;;;;;;1864343;77;21093;-45
2022/01/30 00:02:43;;;;;;;2.10;1.70;;;4.20;84.40;;;;;;1864352;76;21045;-44
2022/01/30 00:05:13;;;;;;;2.83;1.60;;;4.20;85.10;;;;;;1864451;77;21127;-44
2022/01/30 00:07:42;;;;;;;1.90;1.50;;;4.20;84.40;;;;;;1864366;77;21042;-44
2022/01/30 00:10:13;;;;;;;2.30;1.50;;;4.10;85.20;;;;;;1864361;77;21049;-45
2022/01/30 00:12:51;;;;;;;1.80;1.20;;;4.10;84.40;;;;;;1871284;75;21030;-45
2022/01/30 00:15:18;;;;;;;2.60;1.35;;;4.10;83.60;;;;;;1864222;76;21069;-46
2022/01/30 00:17:54;;;;;;;1.75;1.10;;;4.00;83.70;;;;;;1864436;77;21084;-44
2022/01/30 00:20:26;;;;;;;1.90;1.35;;;4.00;84.50;;;;;;1863202;76;21102;-46
2022/01/30 00:23:08;;;;;;;1.37;1.27;;;4.00;83.60;;;;;;1862638;77;21550;-44
2022/01/30 00:25:41;;;;;;;1.75;1.10;;;3.90;83.90;;;;;;1861264;77;21132;-44
2022/01/30 00:28:05;;;;;;;2.42;1.00;;;3.90;83.60;;;;;;1861041;77;21014;-44
2022/01/30 00:30:33;;;;;;;1.10;0.90;;;3.80;83.30;;;;;;1863027;77;21009;-44
2022/01/30 00:32:58;;;;;;;1.22;1.00;;;3.80;82.80;;;;;;1863567;77;21085;-44
2022/01/30 00:35:27;;;;;;;1.27;1.17;;;3.70;83.70;;;;;;1864404;76;21507;-45
2022/01/30 00:37:57;;;;;;;1.77;1.30;;;3.70;83.60;;;;;;1864459;77;21025;-44
2022/01/30 00:40:26;;;;;;;1.50;1.10;;;3.70;84.30;;;;;;1864312;77;21005;-45
2022/01/30 00:42:56;;;;;;;2.65;1.20;;;3.70;84.30;;;;;;1864337;77;21021;-44
2022/01/30 00:45:26;;;;;;;2.52;1.25;;;3.80;84.80;;;;;;1864346;77;21084;-44
2022/01/30 00:47:57;;;;;;;2.40;1.40;;;3.80;84.40;;;;;;1864370;77;21045;-44
2022/01/30 00:50:26;;;;;;;1.42;1.00;;;3.80;84.30;;;;;;1864428;77;21034;-44
2022/01/30 00:52:56;;;;;;;2.17;1.10;;;3.80;84.40;;;;;;1864336;76;21037;-44
2022/01/30 00:55:27;;;;;;;1.30;1.20;;;3.80;83.30;;;;;;1864343;77;21013;-45
2022/01/30 00:57:57;;;;;;;1.60;1.50;;;3.80;83.60;;;;;;1864442;77;21038;-44
2022/01/30 01:00:27;;;;;;;2.05;1.37;;;3.70;84.40;;;;;;1864305;77;21038;-44
2022/01/30 01:02:57;;;;;;;1.57;1.25;;;3.70;84.30;;;;;;1864302;77;21025;-44
2022/01/30 01:05:26;;;;;;;1.70;0.98;;;3.70;84.20;;;;;;1864452;77;21518;-45
2022/01/30 01:07:58;;;;;;;2.45;1.47;;;3.70;84.30;;;;;;1864440;77;21073;-45
2022/01/30 01:13:13;;;;;;;0.93;0.90;;;3.60;84.40;;;;;;1864408;77;21134;-44
2022/01/30 01:24:04;;;;;;;1.70;1.32;;;3.70;85.30;;;;;;1841298;77;21057;-44
2022/01/30 01:26:31;;;;;;;1.07;0.98;;;3.80;85.50;;;;;;1863841;77;21057;-45
2022/01/30 01:29:01;;;;;;;2.02;1.32;;;3.90;85.60;;;;;;1864229;77;21033;-44
2022/01/30 01:31:30;;;;;;;0.95;0.90;;;3.90;85.30;;;;;;1864169;76;21018;-44
2022/01/30 01:36:48;;;;;;;1.25;1.10;;;4.00;85.20;;;;;;1864317;76;21108;-45
2022/01/30 01:39:19;;;;;;;1.55;1.35;;;4.10;85.10;;;;;;1864234;76;21127;-44
2022/01/30 01:41:48;;;;;;;1.22;1.12;;;4.10;85.60;;;;;;1864185;77;21054;-45
2022/01/30 01:44:21;;;;;;;1.30;1.20;;;4.10;85.20;;;;;;1864166;77;21095;-44
2022/01/30 01:46:50;;;;;;;1.52;1.10;;;4.10;85.40;;;;;;1864117;77;21124;-44
2022/01/30 01:49:27;;;;;;;1.82;1.27;;;4.10;85.30;;;;;;1864254;77;21030;-44
2022/01/30 01:52:14;;;;;;;1.27;1.02;;;4.10;85.40;;;;;;1863408;77;21069;-44
2022/01/30 01:54:22;;;;;;;2.02;1.20;;;4.10;85.50;;;;;;1859490;77;21033;-44
2022/01/30 01:56:52;;;;;;;1.17;1.07;;;4.10;85.60;;;;;;1864151;76;21010;-44
2022/01/30 01:59:30;;;;;;;3.72;1.47;;;4.20;85.60;;;;;;1862060;77;21091;-45
2022/01/30 02:02:02;;;;;;;1.37;1.27;;;4.20;85.80;;;;;;1860801;77;21110;-45
2022/01/30 02:04:32;;;;;;;1.32;1.00;;;4.20;85.70;;;;;;1864254;77;21037;-44
2022/01/30 02:07:24;;;;;;;1.45;1.35;;;4.10;85.70;;;;;;1864185;77;21041;-44
2022/01/30 02:09:33;;;;;;;2.12;1.35;;;4.10;85.80;;;;;;1859742;76;21033;-45
2022/01/30 02:12:03;;;;;;;3.15;1.57;;;4.10;85.80;;;;;;1864281;77;21065;-44
2022/01/30 02:15:05;;;;;;;2.12;1.65;;;4.10;85.90;;;;;;1862823;75;21230;-45
2022/01/30 02:25:43;;;;;;;2.80;1.50;;;4.00;86.00;;;;;;1855544;77;21093;-44
2022/01/30 02:28:14;;;;;;;2.05;1.70;;;4.00;86.20;;;;;;1855528;77;21136;-44
2022/01/30 02:30:50;;;;;;;2.37;1.90;;;4.00;86.30;;;;;;1855391;77;21100;-44
2022/01/30 02:33:13;;;;;;;3.12;1.70;;;4.00;86.50;;;;;;1854108;77;21038;-44
2022/01/30 02:35:42;;;;;;;3.40;1.80;;;3.90;86.50;;;;;;1855518;77;21014;-46
2022/01/30 02:38:13;;;;;;;1.98;1.67;;;3.90;86.50;;;;;;1855471;77;21029;-45
2022/01/30 02:40:44;;;;;;;3.42;1.75;;;3.90;85.90;;;;;;1855569;76;21014;-44
2022/01/30 02:43:16;;;;;;;1.80;1.70;;;3.90;86.30;;;;;;1855642;77;21066;-44
2022/01/30 02:45:51;;;;;;;2.70;1.47;;;3.80;86.30;;;;;;1855677;77;21037;-44
2022/01/30 02:48:19;;;;;;;2.02;1.40;;;3.80;87.10;;;;;;1854615;77;21034;-45
2022/01/30 02:51:08;;;;;;;2.15;1.47;;;3.70;86.40;;;;;;1855320;77;21050;-44
2022/01/30 02:53:31;;;;;;;2.65;1.42;;;3.70;86.00;;;;;;1853006;77;21045;-46
2022/01/30 02:55:58;;;;;;;6.33;2.08;;;3.60;86.40;;;;;;1855260;77;21029;-44
2022/01/30 02:58:28;;;;;;;1.98;1.42;;;3.60;86.50;;;;;;1855606;77;21029;-44
2022/01/30 03:00:57;;;;;;;1.40;1.30;;;3.60;86.50;;;;;;1855603;77;21065;-45
2022/01/30 03:03:26;;;;;;;3.05;1.22;;;3.60;86.70;;;;;;1855585;77;21042;-44
2022/01/30 03:05:56;;;;;;;2.92;1.50;;;3.60;86.60;;;;;;1855523;77;21095;-45
2022/01/30 03:08:26;;;;;;;5.62;1.70;;;3.60;86.60;;;;;;1855669;77;21054;-44
2022/01/30 03:10:55;;;;;;;1.75;1.45;;;3.60;86.60;;;;;;1855705;77;21045;-44
2022/01/30 03:13:25;;;;;;;4.55;1.30;;;3.70;86.60;;;;;;1855642;77;21092;-44
2022/01/30 03:15:55;;;;;;;1.82;1.50;;;3.60;86.60;;;;;;1860089;75;21491;-44
2022/01/30 03:18:26;;;;;;;3.00;1.37;;;3.60;86.70;;;;;;1864283;77;21081;-44
2022/01/30 03:20:56;;;;;;;2.17;1.60;;;3.60;86.70;;;;;;1864338;77;21033;-44
2022/01/30 03:23:26;;;;;;;3.47;1.60;;;3.60;86.80;;;;;;1864287;77;21104;-45
2022/01/30 03:25:58;;;;;;;1.40;1.30;;;3.60;86.70;;;;;;1864390;77;21054;-45
2022/01/30 03:28:45;;;;;;;3.10;1.50;;;3.60;86.80;;;;;;1862609;77;21111;-44
2022/01/30 03:31:20;;;;;;;2.15;1.27;;;3.60;86.70;;;;;;1863432;77;21057;-44
2022/01/30 03:33:50;;;;;;;4.17;2.00;;;3.50;86.10;;;;;;1864380;77;21120;-44
2022/01/30 03:36:21;;;;;;;6.03;2.00;;;3.40;87.00;;;;;;1862284;77;21096;-45
2022/01/30 03:38:51;;;;;;;1.92;1.22;;;3.40;86.60;;;;;;1864230;77;21095;-44
2022/01/30 03:41:20;;;;;;;4.53;1.22;;;3.40;85.10;;;;;;1864200;77;21062;-44
2022/01/30 03:43:50;;;;;;;2.00;1.32;;;3.30;85.20;;;;;;1864303;77;21176;-44
2022/01/30 03:46:21;;;;;;;1.67;1.42;;;3.20;85.10;;;;;;1864204;76;21105;-45
2022/01/30 03:48:50;;;;;;;1.57;1.35;;;3.10;85.60;;;;;;1864272;77;21088;-45
2022/01/30 03:51:34;;;;;;;4.80;2.25;;;3.00;86.10;;;;;;1862944;77;21119;-44
2022/01/30 03:54:05;;;;;;;3.25;1.92;;;3.00;86.60;;;;;;1862008;77;21049;-44
2022/01/30 03:56:34;;;;;;;2.37;1.65;;;3.00;85.70;;;;;;1864285;77;21013;-44
2022/01/30 03:59:03;;;;;;;2.10;1.70;;;3.00;86.70;;;;;;1864250;77;21034;-45
2022/01/30 04:01:34;;;;;;;5.10;1.90;;;3.00;86.80;;;;;;1864243;76;21103;-44
2022/01/30 04:04:04;;;;;;;2.67;1.60;;;3.00;86.80;;;;;;1864377;77;21549;-44
2022/01/30 04:06:34;;;;;;;5.35;1.98;;;3.10;87.60;;;;;;1864342;77;21018;-46
2022/01/30 04:09:05;;;;;;;3.52;1.62;;;3.10;86.90;;;;;;1862690;77;21049;-44
2022/01/30 04:11:36;;;;;;;3.40;1.77;;;3.10;86.90;;;;;;1862684;77;21041;-44
2022/01/30 04:14:10;;;;;;;3.20;1.92;;;3.10;86.90;;;;;;1860531;77;21130;-45
2022/01/30 04:16:41;;;;;;;4.05;1.90;;;3.20;86.90;;;;;;1867400;75;21049;-44
2022/01/30 04:19:22;;;;;;;2.50;1.52;;;3.20;86.60;;;;;;1870126;76;21070;-44
2022/01/30 04:22:08;;;;;;;2.50;2.00;;;3.20;86.80;;;;;;1845338;76;21091;-44
2022/01/30 04:24:39;;;;;;;3.30;2.62;;;3.20;86.80;;;;;;1872281;77;21058;-44
2022/01/30 04:27:22;;;;;;;6.58;3.20;;;3.20;87.50;;;;;;1871645;76;21061;-44
2022/01/30 04:29:53;;;;;;;6.55;3.42;;;3.20;86.90;;;;;;1872434;76;21057;-45
2022/01/30 04:32:44;;;;;;;4.62;2.42;;;3.20;86.90;;;;;;1811406;79;21054;-44
2022/01/30 04:35:22;;;;;;;5.12;3.35;;;3.10;86.90;;;;;;1799240;79;21050;-45
2022/01/30 04:40:59;;;;;;;;;;;3.10;87.30;;;;;;1872247;76;21037;-44
2022/01/30 04:52:34;;;;;;;4.90;2.98;;;3.00;87.00;;;;;;1830947;76;21355;-44
2022/01/30 05:00:50;;;;;;;3.90;2.58;;;3.00;87.40;;;;;;1870766;76;21033;-44
2022/01/30 05:03:39;;;;;;;3.17;2.60;;;3.00;87.20;;;;;;1871971;76;21069;-45
2022/01/30 05:06:09;;;;;;;6.42;2.70;;;3.00;87.40;;;;;;1865362;77;21053;-44
2022/01/30 05:08:37;;;;;;;6.05;2.42;;;3.00;87.30;;;;;;1872097;77;21120;-45
2022/01/30 05:11:11;;;;;;;4.08;3.37;;;3.10;87.60;;;;;;1836031;76;21057;-43
2022/01/30 05:14:02;;;;;;;6.03;3.85;;;3.10;87.50;;;;;;1868220;77;21123;-44
2022/01/30 05:16:35;;;;;;;5.42;3.33;;;3.10;87.50;;;;;;1867808;76;21097;-44
2022/01/30 05:19:06;;;;;;;6.95;3.72;;;3.10;87.40;;;;;;1861585;76;21114;-45
2022/01/30 05:21:37;;;;;;;9.33;3.95;;;3.10;87.60;;;;;;1862428;77;21111;-45
2022/01/30 05:24:18;;;;;;;7.12;5.28;;;3.10;87.60;;;;;;1863039;77;21053;-45
2022/01/30 05:26:55;;;;;;;8.23;5.15;;;3.20;87.70;;;;;;1862546;77;21127;-47
2022/01/30 05:29:26;;;;;;;10.68;4.42;;;3.20;87.70;;;;;;1863160;77;21021;-44
2022/01/30 05:31:57;;;;;;;9.33;4.75;;;3.20;87.80;;;;;;1860847;75;21034;-44
2022/01/30 05:34:30;;;;;;;10.05;4.12;;;3.30;87.70;;;;;;1845585;77;21153;-44
2022/01/30 05:37:02;;;;;;;11.20;6.05;;;3.30;87.60;;;;;;1861057;75;21037;-44
2022/01/30 05:39:50;;;;;;;12.37;4.67;;;3.30;87.60;;;;;;1864160;77;21049;-44
2022/01/30 05:42:28;;;;;;;12.35;5.87;;;3.40;87.00;;;;;;1859447;77;21029;-44
2022/01/30 05:45:17;;;;;;;7.83;4.60;;;3.30;87.20;;;;;;1855776;77;21049;-44
2022/01/30 05:48:04;;;;;;;8.40;4.53;;;3.30;86.70;;;;;;1858090;77;21073;-44
2022/01/30 05:50:38;;;;;;;6.72;4.15;;;3.20;87.10;;;;;;1861732;77;21530;-44
2022/01/30 05:53:09;;;;;;;5.35;3.42;;;3.20;87.40;;;;;;1863852;77;21022;-44
2022/01/30 05:55:53;;;;;;;4.78;3.40;;;3.30;87.60;;;;;;1862199;77;21045;-44
2022/01/30 05:58:22;;;;;;;9.35;4.15;;;3.40;87.40;;;;;;1864352;77;21057;-44
2022/01/30 06:00:53;;;;;;;4.62;3.42;;;3.40;86.00;;;;;;1861039;77;21186;-44
2022/01/30 06:03:22;;;;;;;5.67;3.58;;;3.40;86.60;;;;;;1864164;77;21041;-45
2022/01/30 06:05:52;;;;;;;6.70;3.17;;;3.30;86.20;;;;;;1864317;77;21060;-45
2022/01/30 06:08:43;;;;;;;7.83;3.22;;;3.30;86.20;;;;;;1864155;77;21132;-44
2022/01/30 06:11:12;;;;;;;3.17;2.70;;;3.20;86.30;;;;;;1864028;77;21107;-44
2022/01/30 06:13:41;;;;;;;4.50;2.58;;;3.20;86.40;;;;;;1864197;76;21065;-46
2022/01/30 06:16:12;;;;;;;2.37;1.80;;;3.20;86.40;;;;;;1864548;77;21170;-45
2022/01/30 06:18:41;;;;;;;6.42;3.40;;;3.20;86.10;;;;;;1864503;75;21072;-44
2022/01/30 06:21:21;;;;;;;8.48;3.60;;;3.20;86.20;;;;;;1858664;76;21158;-44
2022/01/30 06:23:52;;;;;;;4.37;2.55;;;3.20;86.70;;;;;;1864226;77;21021;-45
2022/01/30 06:26:40;;;;;;;15.10;3.65;;;3.20;86.40;;;;;;1864207;77;21161;-44
2022/01/30 06:29:27;;;;;;;3.15;2.85;;;3.20;86.30;;;;;;1864285;76;21139;-44
2022/01/30 06:32:16;;;;;;;7.40;2.67;;;3.20;86.30;;;;;;1864236;77;21050;-44
2022/01/30 06:35:03;;;;;;;7.40;2.30;;;3.20;86.80;;;;;;1864225;77;21069;-45
2022/01/30 06:37:51;;;;;;;4.47;2.83;;;3.30;87.10;;;;;;1864254;76;21049;-44
2022/01/30 06:40:25;;;;;;;4.72;3.65;;;3.40;86.70;;;;;;1860581;77;21206;-44
2022/01/30 06:43:12;;;;;;;7.62;3.37;;;3.50;86.50;;;;;;1864261;77;21143;-45
2022/01/30 06:46:03;;;;;;;5.95;2.90;;;3.50;86.20;;;;;;1801642;79;21126;-44
2022/01/30 06:48:50;;;;;;;9.38;2.67;;;3.60;86.20;;;;;;1801743;79;21147;-45
2022/01/30 06:51:37;;;;;;;6.17;3.27;;;3.60;86.30;;;;;;1840500;77;21053;-45
2022/01/30 06:54:24;;;;;;;3.83;2.40;;;3.70;86.30;;;;;;1864264;77;21112;-44
2022/01/30 06:57:11;;;;;;;3.50;2.95;;;3.70;86.50;;;;;;1864272;77;21057;-44
2022/01/30 06:59:58;;;;;;;7.62;3.60;;;3.80;86.60;;;;;;1864224;77;21074;-44
2022/01/30 07:02:45;;;;;;;4.37;2.90;;;3.90;86.60;;;;;;1864358;77;21052;-44
2022/01/30 07:05:23;;;;;;;6.97;3.30;;;4.10;86.70;;;;;;1860365;77;21041;-44
2022/01/30 07:07:54;;;;;;;8.38;3.33;;;4.20;86.70;;;;;;1862713;76;21119;-44
2022/01/30 07:10:24;;;;;;;10.35;5.28;;;4.40;86.80;;;;;;1864255;77;21107;-44
2022/01/30 07:12:53;;;;;;;9.23;5.50;;;4.50;86.10;;;;;;1864382;77;21009;-44
2022/01/30 07:15:23;;;;;;;8.35;4.33;;;4.60;85.10;;;;;;1864365;77;21099;-45
2022/01/30 07:17:53;;;;;;;6.42;4.08;;;4.60;85.20;;;;;;1861064;75;21139;-44
2022/01/30 07:20:22;;;;;;;4.45;3.37;;;4.60;85.60;;;;;;1855666;77;21081;-44
2022/01/30 07:22:52;;;;;;;5.92;3.90;;;4.60;85.20;;;;;;1855537;77;21077;-44
2022/01/30 07:25:21;;;;;;;4.12;3.47;;;4.60;85.00;;;;;;1855596;77;21033;-46
2022/01/30 07:27:50;;;;;;;6.67;3.77;;;4.60;85.10;;;;;;1855679;77;21109;-45
2022/01/30 07:30:20;;;;;;;6.10;3.87;;;4.60;85.30;;;;;;1855619;77;21120;-44
2022/01/30 07:32:51;;;;;;;5.15;3.70;;;4.60;85.60;;;;;;1855762;77;21069;-44
2022/01/30 07:35:20;;;;;;;5.67;3.47;;;4.70;85.50;;;;;;1855596;77;21046;-44
2022/01/30 07:37:50;;;;;;;5.25;2.50;;;4.80;85.70;;;;;;1855523;77;21013;-44
2022/01/30 07:40:19;;;;;;;4.05;2.80;;;4.90;85.70;;;;;;1855548;77;21042;-45
2022/01/30 07:42:48;;;;;;;4.08;3.12;;;5.10;85.90;;;;;;1855531;76;21125;-44
2022/01/30 07:45:18;;;;;;;3.25;2.47;;;5.30;86.00;;;;;;1855491;76;21100;-44
2022/01/30 07:47:47;;;;;;;4.70;3.05;;;5.50;85.70;;;;;;1855557;77;21042;-44
2022/01/30 07:50:17;;;;;;;5.42;3.05;;;5.70;85.50;;;;;;1855769;77;21162;-44
2022/01/30 07:52:46;;;;;;;3.10;2.50;;;5.80;85.20;;;;;;1855577;77;21049;-46
2022/01/30 07:55:17;;;;;;;4.17;2.87;;;6.00;84.90;;;;;;1855474;77;21050;-45
2022/01/30 07:57:46;;;;;;;1.87;1.55;;;6.10;84.90;;;;;;1855585;77;21523;-45
2022/01/30 08:00:17;;;;;;;3.42;1.80;;;6.10;82.90;;;;;;1855496;77;21050;-45
2022/01/30 08:02:47;;;;;;;2.45;2.25;;;6.20;83.60;;;;;;1855463;77;21100;-46
2022/01/30 08:05:16;;;;;;;2.08;1.37;;;6.20;82.10;;;;;;1855551;77;21041;-45
2022/01/30 08:07:46;;;;;;;2.37;1.62;;;6.10;82.90;;;;;;1855646;77;21057;-46
2022/01/30 08:10:16;;;;;;;6.50;1.70;;;6.10;82.40;;;;;;1855620;77;21050;-46
2022/01/30 08:12:45;;;;;;;3.77;1.92;;;6.10;82.60;;;;;;1855567;76;21103;-44
2022/01/30 08:15:14;;;;;;;2.20;1.62;;;6.10;82.40;;;;;;1855530;77;21037;-44
2022/01/30 08:17:44;;;;;;;2.75;1.40;;;6.10;80.60;;;;;;1856223;75;21037;-46
2022/01/30 08:20:13;;;;;;;2.25;1.75;;;6.10;80.90;;;;;;1872381;77;21014;-44
2022/01/30 08:22:47;;;;;;;2.75;1.00;;;6.10;81.50;;;;;;1872527;77;21018;-47
2022/01/30 08:25:19;;;;;;;1.22;1.10;;;6.10;78.50;;;;;;1871320;76;21471;-50
2022/01/30 08:27:49;;;;;;;6.35;2.12;;;6.10;80.80;;;;;;1872483;77;21002;-47
2022/01/30 08:30:18;;;;;;;1.20;1.05;;;6.10;81.00;;;;;;1872425;76;21087;-47
2022/01/30 08:32:54;;;;;;;2.42;1.47;;;6.10;79.70;;;;;;1872335;77;21100;-49
2022/01/30 08:35:20;;;;;;;3.55;1.47;;;6.10;80.10;;;;;;1871541;76;21088;-46
2022/01/30 08:37:50;;;;;;;3.02;1.47;;;6.10;79.90;;;;;;1872311;77;21083;-46
2022/01/30 08:40:21;;;;;;;4.47;1.90;;;6.20;80.80;;;;;;1872453;77;20985;-47
2022/01/30 08:42:51;;;;;;;4.67;1.40;;;6.20;78.80;;;;;;1872416;77;21076;-49
2022/01/30 08:45:22;;;;;;;1.82;1.10;;;6.20;78.50;;;;;;1872475;76;21040;-47
2022/01/30 08:47:52;;;;;;;1.77;1.20;;;6.30;78.70;;;;;;1872505;76;21056;-47
2022/01/30 08:50:22;;;;;;;2.08;1.72;;;6.30;78.80;;;;;;1872344;77;21076;-50
2022/01/30 08:52:52;;;;;;;2.90;1.90;;;6.30;77.20;;;;;;1872479;77;21076;-46
2022/01/30 08:55:21;;;;;;;1.42;1.32;;;6.30;76.40;;;;;;1872330;76;21017;-47
2022/01/30 08:57:51;;;;;;;4.65;1.55;;;6.20;75.00;;;;;;1872512;77;21071;-50
2022/01/30 09:00:20;;;;;;;2.67;1.72;;;6.30;76.40;;;;;;1872386;77;21013;-46
2022/01/30 09:02:50;;;;;;;3.08;1.32;;;6.30;74.70;;;;;;1872479;77;21006;-46
2022/01/30 09:05:24;;;;;;;1.77;1.20;;;6.30;75.70;;;;;;1872400;77;21459;-47
2022/01/30 09:07:50;;;;;;;2.22;1.70;;;6.30;76.40;;;;;;1872015;76;21038;-49
2022/01/30 09:10:20;;;;;;;1.20;1.10;;;6.30;75.90;;;;;;1872387;77;21010;-46
2022/01/30 09:12:49;;;;;;;3.65;1.60;;;6.30;73.40;;;;;;1872360;77;21016;-45
2022/01/30 09:15:19;;;;;;;1.35;1.12;;;6.40;74.30;;;;;;1872352;76;21072;-46
2022/01/30 09:17:48;;;;;;;1.85;1.10;;;6.40;74.00;;;;;;1872530;77;21002;-47
2022/01/30 09:20:18;;;;;;;1.67;1.02;;;6.40;73.30;;;;;;1890321;76;21024;-46
2022/01/30 09:22:48;;;;;;;5.47;1.62;;;6.50;72.60;;;;;;1893779;76;21106;-46
2022/01/30 09:25:18;;;;;;;2.58;1.65;;;6.50;74.40;;;;;;1894001;76;20984;-44
2022/01/30 09:27:47;;;;;;;3.37;1.87;;;6.60;73.30;;;;;;1893953;76;21075;-45
2022/01/30 09:30:17;;;;;;;2.77;1.45;;;6.60;73.90;;;;;;1893785;76;21009;-48
2022/01/30 09:32:47;;;;;;;1.87;1.37;;;6.60;72.30;;;;;;1893924;76;21013;-45
2022/01/30 09:35:16;;;;;;;3.92;1.35;;;6.70;70.70;;;;;;1893889;76;21063;-46
2022/01/30 09:37:46;;;;;;;2.30;1.70;;;6.70;71.00;;;;;;1893896;76;21106;-47
2022/01/30 09:40:17;;;;;;;5.53;1.60;;;6.70;71.40;;;;;;1893955;76;21028;-45
2022/01/30 09:42:47;;;;;;;2.25;1.00;;;6.70;72.00;;;;;;1893963;76;21517;-47
2022/01/30 09:45:20;;;;;;;3.22;1.25;;;6.70;71.20;;;;;;1893822;76;21005;-47
2022/01/30 09:47:50;;;;;;;1.00;0.90;;;6.70;69.80;;;;;;1893823;76;21008;-44
2022/01/30 09:50:20;;;;;;;5.67;2.05;;;6.70;69.00;;;;;;1894040;76;21037;-44
2022/01/30 09:52:50;;;;;;;3.80;1.98;;;6.70;70.60;;;;;;1894062;76;21001;-45
2022/01/30 09:55:19;;;;;;;3.58;1.65;;;6.60;70.00;;;;;;1893936;76;21078;-45
2022/01/30 09:57:49;;;;;;;1.60;1.20;;;6.60;69.80;;;;;;1894154;76;21024;-45
2022/01/30 10:00:19;;;;;;;2.67;1.60;;;6.60;68.90;;;;;;1893864;76;21017;-44
2022/01/30 10:02:48;;;;;;;8.20;5.22;;;6.60;71.40;;;;;;1894082;76;21033;-45
2022/01/30 10:05:18;;;;;;;4.30;1.45;;;6.70;72.80;;;;;;1893886;76;20989;-45
2022/01/30 10:07:54;;;;;;;7.10;4.10;;;6.70;72.10;;;;;;1894099;76;21009;-45
2022/01/30 10:10:26;;;;;;;4.05;1.95;;;6.70;72.60;;;;;;1894101;76;21032;-45
2022/01/30 10:13:06;;;;;;;7.08;1.70;;;6.70;70.90;;;;;;1893994;76;21020;-48
2022/01/30 10:15:53;;;;;;;4.25;1.32;;;6.70;70.80;;;;;;1888930;76;21075;-47
2022/01/30 10:18:23;;;;;;;2.60;1.72;;;6.70;69.20;;;;;;1884647;76;21008;-45
2022/01/30 10:20:52;;;;;;;7.08;1.72;;;6.70;70.00;;;;;;1876194;76;21162;-45
2022/01/30 10:23:36;;;;;;;2.05;1.30;;;6.60;71.20;;;;;;1872392;77;21100;-44
2022/01/30 10:26:12;;;;;;;2.45;1.57;;;6.60;68.60;;;;;;1872508;77;21076;-44
2022/01/30 10:28:37;;;;;;;3.80;1.22;;;6.60;69.20;;;;;;1871172;76;21018;-45
2022/01/30 10:31:07;;;;;;;2.12;1.70;;;6.60;70.40;;;;;;1872461;77;20986;-45
2022/01/30 10:33:51;;;;;;;2.85;1.55;;;6.60;69.10;;;;;;1872444;76;21068;-44
2022/01/30 10:36:23;;;;;;;1.65;0.93;;;6.70;68.90;;;;;;1872495;76;21076;-46
2022/01/30 10:39:11;;;;;;;2.27;1.70;;;6.70;68.50;;;;;;1872104;76;21029;-46
2022/01/30 10:41:38;;;;;;;1.55;1.45;;;6.80;67.40;;;;;;1872057;76;21057;-47
2022/01/30 10:44:09;;;;;;;2.50;1.12;;;6.80;65.40;;;;;;1872424;76;21041;-47
2022/01/30 10:46:47;;;;;;;3.12;1.40;;;6.80;67.20;;;;;;1872422;77;21067;-45
2022/01/30 10:49:21;;;;;;;1.45;1.35;;;6.90;68.40;;;;;;1872445;76;21013;-45
2022/01/30 10:51:55;;;;;;;6.90;1.55;;;6.90;67.90;;;;;;1872577;77;21408;-47
2022/01/30 10:54:29;;;;;;;2.60;1.47;;;6.90;67.50;;;;;;1872679;77;21534;-48
2022/01/30 10:57:07;;;;;;;2.40;1.55;;;6.80;67.60;;;;;;1872206;77;20994;-45
2022/01/30 10:59:42;;;;;;;4.87;1.40;;;6.90;67.80;;;;;;1872448;77;21075;-45
2022/01/30 11:02:16;;;;;;;5.87;1.27;;;6.90;68.50;;;;;;1872100;76;21099;-45
2022/01/30 11:04:48;;;;;;;1.92;1.47;;;6.80;68.80;;;;;;1872376;77;21074;-49
2022/01/30 11:07:21;;;;;;;4.58;2.30;;;6.80;69.50;;;;;;1872551;77;21009;-46
2022/01/30 11:10:26;;;;;;;7.83;1.20;;;6.70;69.60;;;;;;1872411;77;21010;-47
2022/01/30 11:12:40;;;;;;;3.45;2.70;;;6.70;68.90;;;;;;1864536;77;21084;-45
2022/01/30 11:16:54;;;;;;;3.02;1.22;;;6.80;69.40;;;;;;1871588;76;21110;-45
2022/01/30 11:17:36;;;;;;;2.60;1.60;;;6.80;68.80;;;;;;1864415;77;21079;-45
2022/01/30 11:20:07;;;;;;;4.12;1.27;;;6.80;69.40;;;;;;1868046;75;21179;-47
2022/01/30 11:22:38;;;;;;;2.72;1.35;;;6.90;69.40;;;;;;1855746;76;21043;-48
2022/01/30 11:25:09;;;;;;;1.67;1.10;;;6.90;69.50;;;;;;1855556;77;21104;-45
2022/01/30 11:27:46;;;;;;;4.75;1.27;;;6.80;69.60;;;;;;1855835;77;21002;-45
2022/01/30 11:30:20;;;;;;;2.20;1.40;;;6.80;71.20;;;;;;1855638;77;21034;-44
2022/01/30 11:32:45;;;;;;;2.08;1.20;;;6.80;71.10;;;;;;1854575;77;21033;-45
2022/01/30 11:35:15;;;;;;;2.40;1.20;;;6.80;70.20;;;;;;1855543;76;21077;-45
2022/01/30 11:37:44;;;;;;;3.42;2.27;;;6.70;70.30;;;;;;1855578;77;21053;-46
2022/01/30 11:40:19;;;;;;;3.67;1.10;;;6.70;70.00;;;;;;1855617;77;21151;-45
2022/01/30 11:42:50;;;;;;;5.47;1.95;;;6.80;70.50;;;;;;1855769;76;21568;-46
2022/01/30 11:45:24;;;;;;;4.80;1.62;;;6.80;70.10;;;;;;1855424;77;21128;-45
2022/01/30 11:48:03;;;;;;;3.90;2.08;;;6.70;68.90;;;;;;1855663;76;21093;-45
2022/01/30 11:50:30;;;;;;;1.67;1.32;;;6.70;69.30;;;;;;1854621;76;21104;-45
2022/01/30 11:53:02;;;;;;;2.10;1.40;;;6.80;69.20;;;;;;1855620;76;21038;-45
2022/01/30 11:55:54;;;;;;;1.72;1.20;;;6.70;70.20;;;;;;1855669;77;21526;-45
2022/01/30 11:58:49;;;;;;;2.55;1.65;;;6.70;69.40;;;;;;1854752;76;21045;-44
2022/01/30 12:01:37;;;;;;;4.62;1.37;;;6.60;69.10;;;;;;1855694;77;21095;-45
2022/01/30 12:04:11;;;;;;;3.30;1.30;;;6.60;70.30;;;;;;1855609;76;21129;-47
2022/01/30 12:06:44;;;;;;;1.62;1.52;;;6.60;70.50;;;;;;1855769;77;21103;-44
2022/01/30 12:09:27;;;;;;;2.83;1.42;;;6.70;69.20;;;;;;1855665;77;21099;-44
2022/01/30 12:11:57;;;;;;;2.62;1.50;;;6.70;70.60;;;;;;1855576;77;21088;-47
2022/01/30 12:14:32;;;;;;;3.83;1.60;;;6.70;70.00;;;;;;1855605;77;21061;-47
2022/01/30 12:17:05;;;;;;;3.02;1.47;;;6.70;70.80;;;;;;1853055;76;21058;-44
2022/01/30 12:19:40;;;;;;;1.50;1.10;;;6.80;70.00;;;;;;1855537;77;21025;-45
2022/01/30 12:22:28;;;;;;;3.42;2.00;;;6.80;69.50;;;;;;1855510;76;21038;-45
2022/01/30 12:25:14;;;;;;;2.77;1.22;;;6.70;70.30;;;;;;1855497;77;21046;-44
2022/01/30 12:27:51;;;;;;;2.60;1.47;;;6.80;71.10;;;;;;1855493;77;21127;-44
2022/01/30 12:30:35;;;;;;;2.62;1.85;;;6.80;70.80;;;;;;1855494;77;21054;-45
2022/01/30 12:33:23;;;;;;;5.90;2.50;;;6.70;70.70;;;;;;1855640;76;21542;-43
2022/01/30 12:35:53;;;;;;;2.83;1.25;;;6.70;71.40;;;;;;1855547;77;21087;-46
2022/01/30 12:38:35;;;;;;;3.77;2.10;;;6.60;70.90;;;;;;1855587;77;21018;-50
2022/01/30 12:41:19;;;;;;;1.20;1.10;;;6.60;71.90;;;;;;1855628;76;21010;-46
2022/01/30 12:43:54;;;;;;;2.60;2.00;;;6.50;72.50;;;;;;1855523;77;21029;-48
2022/01/30 12:46:29;;;;;;;2.65;1.95;;;6.50;72.70;;;;;;1855554;77;21041;-50
2022/01/30 12:49:07;;;;;;;6.90;4.90;;;6.50;73.20;;;;;;1855579;77;21057;-46
2022/01/30 12:51:39;;;;;;;2.75;1.70;;;6.40;73.40;;;;;;1855441;77;21054;-44
2022/01/30 12:54:09;;;;;;;3.25;2.27;;;6.40;73.90;;;;;;1855470;77;21037;-46
2022/01/30 12:56:39;;;;;;;3.20;1.92;;;6.40;74.20;;;;;;1855538;77;21050;-45
2022/01/30 12:59:08;;;;;;;3.80;2.00;;;6.40;74.30;;;;;;1855381;76;21038;-49
2022/01/30 13:01:40;;;;;;;1.80;1.30;;;6.30;74.20;;;;;;1855548;77;21112;-46
2022/01/30 13:04:15;;;;;;;5.40;3.55;;;6.20;74.60;;;;;;1855526;77;21034;-45
2022/01/30 13:06:46;;;;;;;3.70;3.30;;;6.20;74.90;;;;;;1855730;77;21625;-47
2022/01/30 13:09:27;;;;;;;1.80;1.70;;;6.10;74.90;;;;;;1855663;77;21109;-46
2022/01/30 13:11:59;;;;;;;3.30;2.47;;;6.10;75.20;;;;;;1855530;77;21033;-46
2022/01/30 13:14:41;;;;;;;3.22;2.30;;;6.00;75.50;;;;;;1855557;77;21112;-48
2022/01/30 13:17:11;;;;;;;2.92;2.65;;;5.90;75.80;;;;;;1855658;77;21073;-46
2022/01/30 13:19:47;;;;;;;3.20;2.10;;;5.80;76.10;;;;;;1855533;77;21017;-46
2022/01/30 13:22:16;;;;;;;3.17;2.67;;;5.70;77.10;;;;;;1865271;75;21057;-44
2022/01/30 13:24:48;;;;;;;2.65;2.22;;;5.60;76.70;;;;;;1844436;77;21153;-44
2022/01/30 13:27:18;;;;;;;2.37;2.15;;;5.50;76.90;;;;;;1845217;78;21054;-46
2022/01/30 13:29:47;;;;;;;1.90;1.47;;;5.40;78.80;;;;;;1846276;78;21042;-48
2022/01/30 13:32:17;;;;;;;2.70;1.72;;;5.30;77.50;;;;;;1846411;77;21138;-46
2022/01/30 13:34:46;;;;;;;3.12;2.12;;;5.20;78.30;;;;;;1846447;78;21104;-45
2022/01/30 13:37:19;;;;;;;2.95;1.55;;;5.10;78.40;;;;;;1846511;78;21275;-46
2022/01/30 13:48:11;;;;;;;1.87;1.50;;;5.00;78.90;;;;;;1836697;78;21132;-46
2022/01/30 13:50:52;;;;;;;1.77;1.25;;;5.00;78.90;;;;;;1846362;78;21128;-45
2022/01/30 13:53:25;;;;;;;2.05;1.47;;;5.00;79.10;;;;;;1846259;78;21038;-45
2022/01/30 13:56:12;;;;;;;3.27;1.75;;;4.90;78.90;;;;;;1846396;78;21082;-44
2022/01/30 13:58:47;;;;;;;2.52;1.57;;;4.90;79.80;;;;;;1846279;78;21112;-45
2022/01/30 14:01:21;;;;;;;1.65;1.32;;;4.80;79.50;;;;;;1846295;76;21031;-44
2022/01/30 14:03:53;;;;;;;2.45;1.65;;;4.80;79.80;;;;;;1846503;77;21496;-45
2022/01/30 14:06:24;;;;;;;3.50;1.50;;;4.70;79.90;;;;;;1844402;78;21061;-44
2022/01/30 14:08:56;;;;;;;1.75;1.55;;;4.70;79.70;;;;;;1846283;78;21046;-47
2022/01/30 14:11:33;;;;;;;2.20;1.65;;;4.70;80.40;;;;;;1846396;78;21099;-45
2022/01/30 14:14:14;;;;;;;2.83;1.75;;;4.70;80.30;;;;;;1846400;78;21038;-45
2022/01/30 14:16:51;;;;;;;2.10;1.65;;;4.60;80.90;;;;;;1846365;78;21476;-48